createdAt,value
2017-08-15T00:00:03.654Z,15.1
2017-08-15T00:15:03.525Z,14.9
2017-08-15T00:30:03.699Z,14.8
2017-08-15T00:45:03.780Z,14.8
2017-08-15T01:00:04.188Z,14.6
2017-08-15T01:15:03.001Z,14.6
2017-08-15T01:30:02.673Z,14.5
2017-08-15T01:45:04.150Z,14.4
2017-08-15T02:00:03.814Z,14.2
2017-08-15T02:15:03.534Z,14.1
2017-08-15T02:30:03.674Z,14
2017-08-15T02:45:03.500Z,13.9
2017-08-15T03:00:03.558Z,13.8
2017-08-15T03:15:03.584Z,13.8
2017-08-15T03:30:03.732Z,13.7
2017-08-15T03:45:03.596Z,13.6
2017-08-15T04:00:04.019Z,13.6
2017-08-15T04:15:02.725Z,13.5
2017-08-15T04:30:03.998Z,13.6
2017-08-15T04:45:02.714Z,13.8
2017-08-15T05:00:04.361Z,13.8
2017-08-15T05:15:03.331Z,14.1
2017-08-15T05:30:03.350Z,14.2
2017-08-15T05:45:04.767Z,14.5
2017-08-15T06:00:08.302Z,14.6
2017-08-15T06:15:03.659Z,15
2017-08-15T06:30:05.865Z,15.3
2017-08-15T06:45:02.834Z,15.8
2017-08-15T07:00:05.178Z,16.1
2017-08-15T07:15:04.137Z,16.5
2017-08-15T07:30:06.869Z,16.9
2017-08-15T07:45:06.291Z,17.8
2017-08-15T08:00:05.441Z,18.4
2017-08-15T08:15:03.234Z,20.2
2017-08-15T08:30:03.869Z,21.6
2017-08-15T08:45:04.247Z,22.2
2017-08-15T09:00:03.277Z,23.8
2017-08-15T09:15:03.320Z,25
2017-08-15T09:30:03.422Z,25.2
2017-08-15T09:45:03.509Z,25.7
2017-08-15T10:00:06.146Z,26.6
2017-08-15T10:15:02.928Z,28.2
2017-08-15T10:30:02.604Z,28.3
2017-08-15T10:45:04.086Z,28.5
2017-08-15T11:00:02.919Z,28.7
2017-08-15T11:15:03.858Z,29
2017-08-15T11:30:02.636Z,29.6
2017-08-15T11:45:03.669Z,29.8
2017-08-15T12:00:04.490Z,29.2
2017-08-15T12:15:03.695Z,30.3
2017-08-15T12:30:03.301Z,30.5
2017-08-15T12:45:03.083Z,31.9
2017-08-15T13:00:03.206Z,32.2
2017-08-15T13:15:03.187Z,31.6
2017-08-15T13:30:02.977Z,31.4
2017-08-15T13:45:02.677Z,32.5
2017-08-15T14:00:04.233Z,31
2017-08-15T14:15:04.102Z,32.4
2017-08-15T14:30:03.278Z,31.8
2017-08-15T14:45:03.746Z,30.1
2017-08-15T15:00:03.605Z,30.8
2017-08-15T15:15:03.702Z,30.1
2017-08-15T15:30:03.620Z,29.6
2017-08-15T15:45:03.421Z,28.8
2017-08-15T16:00:03.252Z,28.7
2017-08-15T16:15:02.876Z,28.1
2017-08-15T16:30:02.491Z,27.3
2017-08-15T16:45:03.918Z,26.9
2017-08-15T17:00:02.671Z,26.5
2017-08-15T17:15:03.465Z,25.4
2017-08-15T17:30:03.106Z,24.9
2017-08-15T17:45:02.762Z,24.3
2017-08-15T18:00:03.877Z,23.9
2017-08-15T18:15:04.446Z,22.2
2017-08-15T18:30:03.097Z,22.1
2017-08-15T18:45:02.685Z,21.2
2017-08-15T19:00:03.459Z,21.5
2017-08-15T19:15:03.072Z,21.2
2017-08-15T19:30:02.710Z,20.7
2017-08-15T19:45:03.340Z,20
2017-08-15T20:00:02.906Z,19.8
2017-08-15T20:15:02.496Z,21.1
2017-08-15T20:30:03.214Z,20.9
2017-08-15T20:45:02.891Z,19.9
2017-08-15T21:00:03.934Z,20.1
2017-08-15T21:15:02.712Z,19.8
2017-08-15T21:30:03.538Z,19.4
2017-08-15T21:45:03.208Z,19.4
2017-08-15T22:00:02.923Z,19.2
2017-08-15T22:15:02.636Z,19.9
2017-08-15T22:30:03.628Z,19.9
2017-08-15T22:45:03.268Z,18.9
2017-08-15T23:00:03.023Z,19.1
2017-08-15T23:15:02.642Z,18.8
2017-08-15T23:30:03.438Z,18.9
2017-08-15T23:45:03.424Z,18.5
